^^
Saratoga-Weather Station Historical Data
Daily Summary for November 1, 2021 Units:  Metric    English   Both
Daily Weekly Monthly Yearly Custom
  High: Low: Average:
Temperature: 12.1 °C 7.4 °C 10.3 °C
Dew Point: 10.5 °C 6.5 °C 8.8 °C
Humidity: 94% 81% 90%
Wind Speed: 13km/h 0km/h 1.9km/h
Wind Gust: 16.1km/h - -
Wind- - WSW
Pressure: 1003.0 hPa 1001.0 hPa -
Precipitation: 4.3 mm    
Historical Graphs
 
 
Tabular Data for November 1, 2021
Time Temperature Dew Point Pressure Wind Wind Speed Wind Gust Humidity Rainfall Rate (Hourly) solar
00:02 11.3 °C 10.4 °C 1002.0 hPa Calm   1.6 km/h 94% 0.0 mm 0 W/m2
00:07 11.4 °C 10.5 °C 1002.0 hPa Calm   4.8 km/h 94% 0.0 mm 0 W/m2
00:12 11.4 °C 10.3 °C 1002.0 hPa WNW 3.2 km/h 6.4 km/h 93% 0.0 mm 0 W/m2
00:17 11.5 °C 10.4 °C 1002.0 hPa West 4.7 km/h 8 km/h 93% 0.0 mm 0 W/m2
00:22 11.5 °C 10.4 °C 1002.0 hPa North 6.4 km/h 9.7 km/h 93% 0.0 mm 0 W/m2
00:27 11.6 °C 10.5 °C 1002.0 hPa Calm     93% 0.0 mm 0 W/m2
00:32 11.5 °C 10.4 °C 1001.7 hPa NW 3.2 km/h 6.4 km/h 93% 0.0 mm 0 W/m2
00:37 11.5 °C 10.4 °C 1001.7 hPa Calm   1.6 km/h 93% 0.0 mm 0 W/m2
00:42 11.4 °C 10.3 °C 1001.7 hPa WNW 7.9 km/h 8 km/h 93% 0.0 mm 0 W/m2
00:47 11.4 °C 10.3 °C 1001.7 hPa WNW 3.2 km/h 3.2 km/h 93% 0.0 mm 0 W/m2
00:52 11.3 °C 10.2 °C 1002.0 hPa NW 1.4 km/h 6.4 km/h 93% 0.0 mm 0 W/m2
00:57 11.3 °C 10.2 °C 1001.7 hPa Calm   3.2 km/h 93% 0.0 mm 0 W/m2
01:02 11.3 °C 10.2 °C 1001.4 hPa NNW 1.4 km/h 3.2 km/h 93% 0.0 mm 0 W/m2
01:07 11.2 °C 10.1 °C 1001.4 hPa Calm   3.2 km/h 93% 0.0 mm 0 W/m2
01:13 11.2 °C 10.1 °C 1001.4 hPa NW 3.2 km/h 3.2 km/h 93% 0.0 mm 0 W/m2
01:18 11.2 °C 10.1 °C 1001.4 hPa West 3.2 km/h 4.8 km/h 93% 0.0 mm 0 W/m2
01:23 11.2 °C 10.1 °C 1001.4 hPa WNW 3.2 km/h 9.7 km/h 93% 0.0 mm 0 W/m2
01:28 11.2 °C 10.1 °C 1001.4 hPa West 4.7 km/h 4.8 km/h 93% 0.0 mm 0 W/m2
01:33 11.2 °C 10.1 °C 1001.7 hPa Calm   8 km/h 93% 0.0 mm 0 W/m2
01:38 11.2 °C 10.1 °C 1001.4 hPa NW 1.4 km/h 3.2 km/h 93% 0.0 mm 0 W/m2
01:43 11.1 °C 10 °C 1001.4 hPa Calm     93% 0.0 mm 0 W/m2
01:48 11.1 °C 10 °C 1001.4 hPa NW 1.4 km/h 3.2 km/h 93% 0.0 mm 0 W/m2
01:53 11 °C 9.9 °C 1001.4 hPa Calm   3.2 km/h 93% 0.0 mm 0 W/m2
01:58 10.9 °C 9.8 °C 1001.4 hPa Calm   1.6 km/h 93% 0.0 mm 0 W/m2
02:03 10.9 °C 10 °C 1001.4 hPa Calm   3.2 km/h 94% 0.0 mm 0 W/m2
02:08 10.9 °C 10 °C 1001.7 hPa Calm   1.6 km/h 94% 0.0 mm 0 W/m2
02:13 10.8 °C 9.9 °C 1001.4 hPa Calm     94% 0.0 mm 0 W/m2
02:18 10.7 °C 9.8 °C 1001.4 hPa Calm   1.6 km/h 94% 0.0 mm 0 W/m2
02:23 10.7 °C 9.8 °C 1001.4 hPa Calm     94% 0.0 mm 0 W/m2
02:28 10.6 °C 9.7 °C 1001.4 hPa Calm     94% 0.0 mm 0 W/m2
02:33 10.6 °C 9.7 °C 1001.4 hPa Calm     94% 0.0 mm 0 W/m2
02:38 10.5 °C 9.6 °C 1001.4 hPa Calm   3.2 km/h 94% 0.0 mm 0 W/m2
02:43 10.4 °C 9.5 °C 1001.4 hPa Calm   1.6 km/h 94% 0.0 mm 0 W/m2
02:48 10.4 °C 9.5 °C 1001.4 hPa Calm   6.4 km/h 94% 0.0 mm 0 W/m2
02:53 10.5 °C 9.6 °C 1001.4 hPa Calm     94% 0.0 mm 0 W/m2
02:58 10.4 °C 9.5 °C 1001.4 hPa North 4.7 km/h 6.4 km/h 94% 0.0 mm 0 W/m2
03:03 10.4 °C 9.5 °C 1001.4 hPa Calm   4.8 km/h 94% 0.0 mm 0 W/m2
03:08 10.5 °C 9.6 °C 1001.4 hPa Calm   1.6 km/h 94% 0.0 mm 0 W/m2
03:13 10.5 °C 9.6 °C 1001.7 hPa Calm   4.8 km/h 94% 0.0 mm 0 W/m2
03:18 10.5 °C 9.6 °C 1001.7 hPa North 3.2 km/h 6.4 km/h 94% 0.0 mm 0 W/m2
03:23 10.6 °C 9.7 °C 1001.7 hPa NNW 3.2 km/h 3.2 km/h 94% 0.0 mm 0 W/m2
03:28 10.6 °C 9.5 °C 1001.7 hPa Calm   4.8 km/h 93% 0.0 mm 0 W/m2
03:33 10.6 °C 9.5 °C 1001.7 hPa WNW 1.4 km/h 4.8 km/h 93% 0.0 mm 0 W/m2
03:38 10.6 °C 9.5 °C 1001.7 hPa Calm   3.2 km/h 93% 0.0 mm 0 W/m2
03:43 10.6 °C 9.5 °C 1002.0 hPa West 1.4 km/h 9.7 km/h 93% 0.0 mm 0 W/m2
03:48 10.6 °C 9.4 °C 1001.7 hPa Calm   8 km/h 92% 0.0 mm 0 W/m2
04:06 10.2 °C 9 °C 1001.7 hPa Calm     92% 0.0 mm 0 W/m2
04:11 10.1 °C 8.9 °C 1001.7 hPa Calm     92% 0.0 mm 0 W/m2
04:16 9.9 °C 8.7 °C 1001.4 hPa Calm   3.2 km/h 92% 0.0 mm 0 W/m2
04:21 9.8 °C 8.6 °C 1001.4 hPa NW 3.2 km/h 3.2 km/h 92% 0.0 mm 0 W/m2
04:26 9.7 °C 8.6 °C 1001.4 hPa NNW 1.4 km/h 4.8 km/h 93% 0.0 mm 0 W/m2
04:31 9.8 °C 8.7 °C 1001.4 hPa Calm   4.8 km/h 93% 0.0 mm 0 W/m2
04:36 9.8 °C 8.6 °C 1001.4 hPa Calm   6.4 km/h 92% 0.0 mm 0 W/m2
04:41 9.7 °C 8.5 °C 1001.7 hPa Calm   3.2 km/h 92% 0.0 mm 0 W/m2
04:46 9.7 °C 8.5 °C 1001.7 hPa NW 1.4 km/h 3.2 km/h 92% 0.0 mm 0 W/m2
04:51 9.6 °C 8.4 °C 1001.7 hPa Calm   3.2 km/h 92% 0.0 mm 0 W/m2
04:56 9.6 °C 8.4 °C 1001.7 hPa Calm   3.2 km/h 92% 0.0 mm 0 W/m2
05:01 9.5 °C 8.3 °C 1001.7 hPa Calm   4.8 km/h 92% 0.0 mm 0 W/m2
05:06 9.4 °C 8.2 °C 1001.7 hPa WNW 1.4 km/h 9.7 km/h 92% 0.0 mm 0 W/m2
05:11 9.5 °C 8.3 °C 1001.7 hPa NNW 3.2 km/h 3.2 km/h 92% 0.0 mm 0 W/m2
05:16 9.4 °C 8.2 °C 1001.7 hPa Calm   9.7 km/h 92% 0.0 mm 0 W/m2
05:21 9.4 °C 8.2 °C 1001.7 hPa NW 3.2 km/h 3.2 km/h 92% 0.0 mm 0 W/m2
05:26 9.4 °C 8.2 °C 1001.7 hPa NNW 4.7 km/h 4.8 km/h 92% 0.0 mm 0 W/m2
05:31 9.3 °C 8.1 °C 1002.0 hPa NW 3.2 km/h 6.4 km/h 92% 0.0 mm 0 W/m2
05:36 9.4 °C 8.3 °C 1002.0 hPa NNW 6.4 km/h 8 km/h 93% 0.0 mm 0 W/m2
05:41 9.4 °C 8.2 °C 1002.0 hPa NNE 1.4 km/h 4.8 km/h 92% 0.0 mm 0 W/m2
05:46 9.4 °C 8.2 °C 1002.0 hPa North 3.2 km/h 4.8 km/h 92% 0.0 mm 0 W/m2
05:51 9.4 °C 8.2 °C 1002.0 hPa NNE 1.4 km/h 3.2 km/h 92% 0.0 mm 0 W/m2
05:56 9.3 °C 8.1 °C 1002.0 hPa NNE 3.2 km/h 3.2 km/h 92% 0.0 mm 0 W/m2
06:01 9.3 °C 8.1 °C 1002.0 hPa NW 1.4 km/h 4.8 km/h 92% 0.0 mm 0 W/m2
06:06 9.3 °C 8.1 °C 1002.0 hPa Calm   3.2 km/h 92% 0.0 mm 0 W/m2
06:11 9.3 °C 8.1 °C 1002.0 hPa Calm   3.2 km/h 92% 0.0 mm 0 W/m2
06:16 9.3 °C 8.1 °C 1002.0 hPa Calm   1.6 km/h 92% 0.0 mm 0 W/m2
06:21 9.2 °C 8 °C 1002.0 hPa North 3.2 km/h 8 km/h 92% 0.0 mm 0 W/m2
06:26 9.2 °C 8 °C 1002.0 hPa NE 1.4 km/h 4.8 km/h 92% 0.0 mm 0 W/m2
06:32 9.2 °C 8 °C 1002.0 hPa SW 4.7 km/h 6.4 km/h 92% 0.0 mm 0 W/m2
06:37 9.2 °C 8 °C 1002.0 hPa Calm   1.6 km/h 92% 0.0 mm 0 W/m2
06:42 9.2 °C 8 °C 1002.0 hPa Calm   1.6 km/h 92% 0.0 mm 0 W/m2
06:47 9.2 °C 8 °C 1002.0 hPa NNW 3.2 km/h 6.4 km/h 92% 0.0 mm 0 W/m2
06:52 9.1 °C 7.9 °C 1002.0 hPa Calm     92% 0.0 mm 0 W/m2
06:57 9.1 °C 7.9 °C 1002.0 hPa WSW 1.4 km/h 4.8 km/h 92% 0.0 mm 0 W/m2
07:02 9.1 °C 7.9 °C 1002.0 hPa Calm   3.2 km/h 92% 0.0 mm 0 W/m2
07:07 9 °C 7.8 °C 1002.0 hPa North 3.2 km/h 8 km/h 92% 0.0 mm 0 W/m2
07:12 8.9 °C 7.7 °C 1002.0 hPa West 1.4 km/h 1.6 km/h 92% 0.0 mm 0 W/m2
07:17 8.8 °C 7.6 °C 1002.0 hPa Calm   1.6 km/h 92% 0.0 mm 0 W/m2
07:22 8.7 °C 7.5 °C 1002.0 hPa Calm   3.2 km/h 92% 0.0 mm 0 W/m2
07:27 8.6 °C 7.4 °C 1002.0 hPa NNE 1.4 km/h 3.2 km/h 92% 0.0 mm 0 W/m2
07:32 8.4 °C 7.3 °C 1002.0 hPa Calm     93% 0.0 mm 5 W/m2
07:37 8.4 °C 7.3 °C 1002.0 hPa Calm   4.8 km/h 93% 0.0 mm 5 W/m2
07:42 8.4 °C 7.3 °C 1002.4 hPa West 1.4 km/h 4.8 km/h 93% 0.0 mm 7 W/m2
07:47 8.4 °C 7.5 °C 1002.4 hPa Calm   3.2 km/h 94% 0.0 mm 9 W/m2
07:52 8.4 °C 7.5 °C 1002.4 hPa NE 4.7 km/h 4.8 km/h 94% 0.0 mm 16 W/m2
07:57 8.6 °C 7.7 °C 1002.4 hPa WSW 1.4 km/h 3.2 km/h 94% 0.0 mm 28 W/m2
08:02 8.7 °C 7.8 °C 1002.4 hPa NNW 1.4 km/h 6.4 km/h 94% 0.0 mm 25 W/m2
08:07 8.9 °C 8 °C 1002.4 hPa Calm   3.2 km/h 94% 0.0 mm 47 W/m2
08:12 9 °C 8.1 °C 1002.4 hPa East 1.4 km/h 4.8 km/h 94% 0.0 mm 28 W/m2
08:17 9.1 °C 8 °C 1002.4 hPa Calm   3.2 km/h 93% 0.0 mm 46 W/m2
08:22 9.2 °C 8.1 °C 1002.4 hPa Calm     93% 0.0 mm 33 W/m2
08:27 9.3 °C 8.2 °C 1002.4 hPa NE 1.4 km/h 3.2 km/h 93% 0.0 mm 37 W/m2
08:32 9.4 °C 8.3 °C 1002.4 hPa North 3.2 km/h 3.2 km/h 93% 0.0 mm 70 W/m2
08:37 9.6 °C 8.5 °C 1002.4 hPa North 6.4 km/h 12.9 km/h 93% 0.0 mm 46 W/m2
08:42 9.7 °C 8.6 °C 1002.4 hPa NNW 3.2 km/h 6.4 km/h 93% 0.0 mm 76 W/m2
08:47 9.8 °C 8.6 °C 1002.7 hPa Calm   12.9 km/h 92% 0.0 mm 49 W/m2
08:52 9.9 °C 8.7 °C 1002.7 hPa West 3.2 km/h 6.4 km/h 92% 0.0 mm 62 W/m2
09:11 10.3 °C 8.9 °C 1002.7 hPa North 7.9 km/h 12.9 km/h 91% 0.0 mm 135 W/m2
09:16 10.4 °C 9 °C 1002.7 hPa WNW 3.2 km/h 11.3 km/h 91% 0.0 mm 116 W/m2
09:21 10.6 °C 9 °C 1002.7 hPa North 9.7 km/h 14.5 km/h 90% 0.0 mm 90 W/m2
09:26 10.7 °C 9.1 °C 1002.7 hPa NW 4.7 km/h 8 km/h 90% 0.0 mm 120 W/m2
09:31 10.7 °C 9.1 °C 1002.7 hPa North 1.4 km/h 3.2 km/h 90% 0.0 mm 95 W/m2
09:36 10.8 °C 9.1 °C 1002.7 hPa West 3.2 km/h 16.1 km/h 89% 0.0 mm 102 W/m2
09:41 10.8 °C 9.1 °C 1002.7 hPa WNW 13 km/h 12.9 km/h 89% 0.0 mm 116 W/m2
09:46 10.8 °C 9.1 °C 1002.7 hPa NNE 3.2 km/h 16.1 km/h 89% 0.0 mm 88 W/m2
09:51 10.9 °C 9.2 °C 1002.7 hPa NW 7.9 km/h 14.5 km/h 89% 0.0 mm 104 W/m2
09:56 10.9 °C 9.2 °C 1002.7 hPa NW 3.2 km/h 4.8 km/h 89% 0.0 mm 67 W/m2
10:01 11 °C 9.3 °C 1002.7 hPa WNW 1.4 km/h 8 km/h 89% 0.0 mm 62 W/m2
10:06 11.1 °C 9.4 °C 1002.7 hPa NW 7.9 km/h 8 km/h 89% 0.0 mm 90 W/m2
10:11 11.2 °C 9.3 °C 1002.7 hPa SW 1.4 km/h 9.7 km/h 88% 0.0 mm 134 W/m2
10:16 11.3 °C 9.4 °C 1002.4 hPa WNW 4.7 km/h 12.9 km/h 88% 0.0 mm 193 W/m2
10:21 11.4 °C 9.5 °C 1002.4 hPa NW 7.9 km/h 8 km/h 88% 0.0 mm 262 W/m2
10:26 11.6 °C 9.7 °C 1002.4 hPa ENE 1.4 km/h 6.4 km/h 88% 0.0 mm 230 W/m2
10:31 11.7 °C 9.4 °C 1002.4 hPa WNW 11.1 km/h 12.9 km/h 86% 0.0 mm 134 W/m2
10:36 11.7 °C 9.6 °C 1002.7 hPa NNW 4.7 km/h 8 km/h 87% 0.0 mm 77 W/m2
10:41 11.6 °C 9.5 °C 1002.7 hPa WNW 13 km/h 12.9 km/h 87% 0.0 mm 79 W/m2
10:46 11.4 °C 9.3 °C 1002.7 hPa ENE 4.7 km/h 4.8 km/h 87% 0.0 mm 28 W/m2
10:51 11.3 °C 9.4 °C 1002.7 hPa NNW 9.7 km/h 9.7 km/h 88% 0.5 mm 18 W/m2
10:56 10.8 °C 8.7 °C 1003.0 hPa ENE 4.7 km/h 11.3 km/h 87% 2.3 mm 23 W/m2
11:01 10.3 °C 8.2 °C 1003.0 hPa Calm   12.9 km/h 87% 3.6 mm 23 W/m2
11:06 10.1 °C 8.4 °C 1002.7 hPa NW 3.2 km/h 6.4 km/h 89% 4.1 mm 35 W/m2
11:11 10 °C 8.4 °C 1002.7 hPa NNW 1.4 km/h 6.4 km/h 90% 4.3 mm 47 W/m2
11:16 9.9 °C 8.3 °C 1002.7 hPa NNW 1.4 km/h 3.2 km/h 90% 4.3 mm 100 W/m2
11:21 9.9 °C 8.5 °C 1002.7 hPa Calm   1.6 km/h 91% 4.3 mm 60 W/m2
11:26 9.9 °C 8.5 °C 1002.7 hPa South 1.4 km/h 4.8 km/h 91% 4.3 mm 51 W/m2
11:31 9.9 °C 8.5 °C 1002.7 hPa North 3.2 km/h 4.8 km/h 91% 4.3 mm 114 W/m2
11:36 10.2 °C 9 °C 1002.7 hPa Calm   6.4 km/h 92% 4.3 mm 81 W/m2
11:41 10.3 °C 9.1 °C 1002.4 hPa Calm   4.8 km/h 92% 4.3 mm 142 W/m2
11:47 10.5 °C 9.3 °C 1002.4 hPa West 1.4 km/h 4.8 km/h 92% 4.3 mm 155 W/m2
11:52 10.8 °C 9.6 °C 1002.4 hPa WNW 1.4 km/h 6.4 km/h 92% 3.8 mm 160 W/m2
11:57 11.1 °C 9.8 °C 1002.4 hPa West 3.2 km/h 4.8 km/h 92% 1.8 mm 56 W/m2
12:02 11.1 °C 9.7 °C 1002.0 hPa SSE 1.4 km/h 3.2 km/h 91% 0.5 mm 51 W/m2
12:07 11.1 °C 9.7 °C 1002.0 hPa NW 3.2 km/h 4.8 km/h 91% 0.2 mm 46 W/m2
12:12 11.1 °C 9.7 °C 1002.0 hPa NNE 1.4 km/h 3.2 km/h 91% 0.0 mm 58 W/m2
12:17 11 °C 9.6 °C 1002.0 hPa ESE 4.7 km/h 4.8 km/h 91% 0.0 mm 74 W/m2
12:22 10.9 °C 9.3 °C 1002.0 hPa Calm   1.6 km/h 90% 0.0 mm 88 W/m2
12:27 10.9 °C 9.3 °C 1002.0 hPa Calm   4.8 km/h 90% 0.0 mm 83 W/m2
12:32 10.8 °C 9.2 °C 1002.0 hPa ENE 4.7 km/h 6.4 km/h 90% 0.0 mm 90 W/m2
12:37 10.8 °C 9.2 °C 1002.0 hPa Calm   3.2 km/h 90% 0.0 mm 79 W/m2
12:54 11.1 °C 9.4 °C 1001.7 hPa WSW 1.4 km/h 4.8 km/h 89% 0.0 mm 42 W/m2
12:59 11.1 °C 9.4 °C 1001.7 hPa WNW 3.2 km/h 8 km/h 89% 0.0 mm 47 W/m2
13:04 11.2 °C 9.3 °C 1001.7 hPa WNW 3.2 km/h 12.9 km/h 88% 0.0 mm 65 W/m2
13:09 11.3 °C 9.4 °C 1001.7 hPa WNW 3.2 km/h 4.8 km/h 88% 0.0 mm 62 W/m2
13:14 11.4 °C 9.3 °C 1001.7 hPa WSW 6.4 km/h 9.7 km/h 87% 0.0 mm 46 W/m2
13:19 11.4 °C 9.5 °C 1001.7 hPa West 3.2 km/h 6.4 km/h 88% 0.0 mm 72 W/m2
13:24 11.6 °C 9.5 °C 1001.7 hPa NNW 1.4 km/h 14.5 km/h 87% 0.0 mm 135 W/m2
13:29 11.7 °C 9.6 °C 1001.7 hPa Calm   3.2 km/h 87% 0.0 mm 216 W/m2
13:34 11.8 °C 9.5 °C 1001.4 hPa WNW 4.7 km/h 4.8 km/h 86% 0.0 mm 195 W/m2
13:39 12 °C 9.6 °C 1001.7 hPa Calm   12.9 km/h 85% 0.0 mm 176 W/m2
13:44 12.1 °C 9.5 °C 1001.7 hPa ESE 9.7 km/h 16.1 km/h 84% 0.0 mm 69 W/m2
13:49 12.1 °C 9.5 °C 1001.7 hPa NW 4.7 km/h 11.3 km/h 84% 0.0 mm 91 W/m2
13:54 12.1 °C 9.5 °C 1001.7 hPa NW 3.2 km/h 16.1 km/h 84% 0.2 mm 118 W/m2
13:59 11.8 °C 9.2 °C 1001.7 hPa WNW 1.4 km/h 9.7 km/h 84% 0.2 mm 51 W/m2
14:04 11.7 °C 9.1 °C 1001.7 hPa West 1.4 km/h 12.9 km/h 84% 0.2 mm 70 W/m2
14:09 11.6 °C 9.2 °C 1001.7 hPa NW 3.2 km/h 6.4 km/h 85% 0.2 mm 98 W/m2
14:14 11.5 °C 8.9 °C 1001.4 hPa NW 1.4 km/h 3.2 km/h 84% 0.2 mm 97 W/m2
14:19 11.4 °C 8.8 °C 1001.4 hPa WNW 3.2 km/h 9.7 km/h 84% 0.2 mm 63 W/m2
14:24 11.4 °C 8.8 °C 1001.4 hPa NW 1.4 km/h 12.9 km/h 84% 0.2 mm 40 W/m2
14:29 11.4 °C 8.6 °C 1001.4 hPa WNW 4.7 km/h 4.8 km/h 83% 0.2 mm 39 W/m2
14:34 11.6 °C 8.6 °C 1001.4 hPa WNW 11.1 km/h 14.5 km/h 82% 0.2 mm 35 W/m2
14:39 11.6 °C 8.6 °C 1001.4 hPa West 6.4 km/h 6.4 km/h 82% 0.2 mm 32 W/m2
14:44 11.6 °C 8.5 °C 1001.4 hPa Calm   6.4 km/h 81% 0.2 mm 42 W/m2
14:49 11.6 °C 8.6 °C 1001.4 hPa West 1.4 km/h 4.8 km/h 82% 0.2 mm 74 W/m2
14:54 11.5 °C 8.7 °C 1001.4 hPa Calm   6.4 km/h 83% 0.0 mm 58 W/m2
14:59 11.4 °C 8.6 °C 1001.4 hPa NW 3.2 km/h 6.4 km/h 83% 0.0 mm 53 W/m2
15:04 11.4 °C 8.4 °C 1001.4 hPa WNW 3.2 km/h 4.8 km/h 82% 0.0 mm 58 W/m2
15:10 11.5 °C 8.5 °C 1001.4 hPa Calm   4.8 km/h 82% 0.0 mm 54 W/m2
15:15 11.5 °C 8.7 °C 1001.4 hPa NNE 1.4 km/h 3.2 km/h 83% 0.0 mm 39 W/m2
15:20 11.5 °C 8.4 °C 1001.4 hPa WSW 3.2 km/h 4.8 km/h 81% 0.0 mm 33 W/m2
15:25 11.6 °C 8.5 °C 1001.4 hPa WNW 3.2 km/h 4.8 km/h 81% 0.0 mm 33 W/m2
15:30 11.6 °C 8.5 °C 1001.4 hPa Calm   4.8 km/h 81% 0.0 mm 39 W/m2
15:35 11.6 °C 8.6 °C 1001.4 hPa NNW 3.2 km/h 3.2 km/h 82% 0.0 mm 37 W/m2
15:40 11.4 °C 8.4 °C 1001.0 hPa NW 1.4 km/h 3.2 km/h 82% 0.0 mm 33 W/m2
15:45 11.4 °C 8.3 °C 1001.0 hPa SE 1.4 km/h 4.8 km/h 81% 0.0 mm 30 W/m2
15:50 11.4 °C 8.6 °C 1001.4 hPa Calm     83% 0.0 mm 30 W/m2
15:55 11.3 °C 8.7 °C 1001.0 hPa West 1.4 km/h 4.8 km/h 84% 0.0 mm 32 W/m2
16:00 11.1 °C 8.3 °C 1001.0 hPa Calm   6.4 km/h 83% 0.0 mm 35 W/m2
16:05 11 °C 8.4 °C 1001.0 hPa Calm     84% 0.0 mm 30 W/m2
16:10 10.9 °C 8.6 °C 1001.0 hPa Calm   6.4 km/h 86% 0.0 mm 25 W/m2
16:15 10.7 °C 8.5 °C 1001.0 hPa Calm   1.6 km/h 86% 0.0 mm 21 W/m2
16:20 10.5 °C 8.4 °C 1001.0 hPa Calm     87% 0.0 mm 25 W/m2
16:25 10.3 °C 8.4 °C 1001.4 hPa Calm     88% 0.0 mm 21 W/m2
16:30 10.2 °C 8.3 °C 1001.0 hPa SE 1.4 km/h 3.2 km/h 88% 0.0 mm 25 W/m2
16:35 10.1 °C 8.4 °C 1001.0 hPa Calm     89% 0.0 mm 28 W/m2
16:40 9.9 °C 8.2 °C 1001.0 hPa Calm   3.2 km/h 89% 0.0 mm 26 W/m2
16:45 9.8 °C 8.2 °C 1001.0 hPa Calm     90% 0.0 mm 25 W/m2
16:50 9.7 °C 8.1 °C 1001.0 hPa Calm     90% 0.0 mm 19 W/m2
16:55 9.6 °C 8.2 °C 1001.0 hPa Calm   1.6 km/h 91% 0.0 mm 16 W/m2
17:00 9.4 °C 8 °C 1001.0 hPa Calm     91% 0.0 mm 12 W/m2
17:05 9.3 °C 8.1 °C 1001.0 hPa Calm   1.6 km/h 92% 0.0 mm 9 W/m2
17:10 9.3 °C 8.1 °C 1001.4 hPa Calm   1.6 km/h 92% 0.0 mm 5 W/m2
17:15 9.3 °C 8.2 °C 1001.4 hPa Calm   1.6 km/h 93% 0.0 mm 0 W/m2
17:20 9.3 °C 8.2 °C 1001.4 hPa SSW 3.2 km/h 4.8 km/h 93% 0.0 mm 0 W/m2
17:25 9.3 °C 8.1 °C 1001.4 hPa Calm   1.6 km/h 92% 0.0 mm 0 W/m2
17:30 9.3 °C 8.1 °C 1001.4 hPa East 1.4 km/h 1.6 km/h 92% 0.0 mm 0 W/m2
17:35 9.3 °C 8.1 °C 1001.4 hPa East 3.2 km/h 3.2 km/h 92% 0.0 mm 0 W/m2
17:40 9.3 °C 7.9 °C 1001.4 hPa Calm     91% 0.0 mm 0 W/m2
17:45 9.2 °C 7.8 °C 1001.4 hPa Calm   1.6 km/h 91% 0.0 mm 0 W/m2
17:50 9.1 °C 7.7 °C 1001.4 hPa Calm     91% 0.0 mm 0 W/m2
17:55 8.9 °C 7.7 °C 1001.4 hPa Calm   1.6 km/h 92% 0.0 mm 0 W/m2
18:00 8.8 °C 7.6 °C 1001.4 hPa Calm     92% 0.0 mm 0 W/m2
18:05 8.7 °C 7.5 °C 1001.4 hPa Calm     92% 0.0 mm 0 W/m2
18:10 8.6 °C 7.4 °C 1001.4 hPa Calm     92% 0.0 mm 0 W/m2
18:15 8.4 °C 7.2 °C 1001.4 hPa Calm     92% 0.0 mm 0 W/m2
18:20 8.3 °C 7.2 °C 1001.4 hPa Calm     93% 0.0 mm 0 W/m2
18:25 8.3 °C 7.2 °C 1001.4 hPa Calm     93% 0.0 mm 0 W/m2
18:30 8.2 °C 7.1 °C 1001.4 hPa Calm     93% 0.0 mm 0 W/m2
18:35 8 °C 6.9 °C 1001.4 hPa Calm     93% 0.0 mm 0 W/m2
18:40 7.9 °C 6.8 °C 1001.7 hPa Calm     93% 0.0 mm 0 W/m2
18:45 7.8 °C 6.7 °C 1001.7 hPa Calm     93% 0.0 mm 0 W/m2
18:50 7.7 °C 6.8 °C 1001.7 hPa Calm     94% 0.0 mm 0 W/m2
18:55 7.6 °C 6.7 °C 1001.7 hPa Calm     94% 0.0 mm 0 W/m2
19:00 7.4 °C 6.5 °C 1001.7 hPa Calm     94% 0.0 mm 0 W/m2
Juneau County Weather
Compliments of Weather Underground - 2 mb